Lake Taupo — D5EZ7 — position and weather

sailwx.info

Track history (hours):
 
Tides and Currents Weather Stations Pressure Air Temp Water Temp Dewpoint Dewpoint Depression Visibility Wind Speed Wind Dir Waves Ship Positions

Lake Taupo

Last reported at 2017-Sep-14 07:36 UTC. Time now 2017-Sep-23 03:54 UTC.
Position S 22°08' E 165°46'.
Warning: this ship's position is 8 days out of date.

Length 182 m; draft 7.4 m.

Type: Cargo ship. MMSI: 636016205.

Date/timePositionNaut miles runAvg speedWind from/ knotsBaromVisibWave heightAir tempDewpointWater temp
2017-Sep-14 07:36S 22°08' E 165°46'115.4
2017-Sep-14 07:30S 22°09' E 165°48'815.5
2017-Sep-14 07:00S 22°14' E 165°55'815.3
2017-Sep-14 06:30S 22°18' E 166°01'815.4
2017-Sep-14 06:00S 22°23' E 166°08'714.3
2017-Sep-14 05:30S 22°21' E 166°16'713.4
2017-Sep-14 05:00S 22°16' E 166°21'5 9.6
2017-Sep-14 04:31S 22°16' E 166°26'0 0.3
2017-Sep-14 04:00S 22°16' E 166°26'0 0.0
2017-Sep-14 03:30S 22°16' E 166°26'0 0.0
2017-Sep-14 03:00S 22°16' E 166°26'0 0.0
2017-Sep-14 02:30S 22°16' E 166°26'0 0.0
2017-Sep-14 02:00S 22°16' E 166°26'0 0.0
2017-Sep-14 01:30S 22°16' E 166°26'0 0.0
2017-Sep-14 00:57S 22°16' E 166°26'0 0.0
2017-Sep-14 00:30S 22°16' E 166°26'0 0.0
2017-Sep-14 00:00S 22°16' E 166°26'0 0.0
2017-Sep-13 23:30S 22°16' E 166°26'1 1.2
2017-Sep-13 23:01S 22°15' E 166°26'612.0
2017-Sep-13 22:30S 22°18' E 166°19'815.6
2017-Sep-13 22:00S 22°23' E 166°14'5 9.1
2017-Sep-13 21:30S 22°28' E 166°12'612.0
2017-Sep-13 21:00S 22°33' E 166°13'  
2017-Sep-06 16:20S 36°31' E 175°52'1115.4
2017-Sep-06 15:36S 36°27' E 175°39'1213.7
2017-Sep-06 14:42S 36°24' E 175°24'210.0
2017-Sep-06 14:30S 36°24' E 175°22'5 9.5
2017-Sep-06 13:59S 36°26' E 175°16'5 9.9
2017-Sep-06 13:27S 36°29' E 175°11'4 9.9
2017-Sep-06 13:00S 36°31' E 175°06'5 9.8
2017-Sep-06 12:30S 36°34' E 175°01'5 9.8
2017-Sep-06 12:00S 36°38' E 174°57'510.0
2017-Sep-06 11:30S 36°42' E 174°53'5 9.8
2017-Sep-06 11:00S 36°45' E 174°49'5 9.8
2017-Sep-06 10:30S 36°50' E 174°48'1 2.6
2017-Sep-06 10:00S 36°50' E 174°46'0 0.0
2017-Sep-06 09:30S 36°50' E 174°46'0 0.0
2017-Sep-06 09:00S 36°50' E 174°46'0 0.0
2017-Sep-06 08:30S 36°50' E 174°46'0 0.0
2017-Sep-06 08:00S 36°50' E 174°46'0 0.0
2017-Sep-06 07:30S 36°50' E 174°46'0 0.0
2017-Sep-06 07:00S 36°50' E 174°46'0 0.0
2017-Sep-06 06:30S 36°50' E 174°46'0 0.0
2017-Sep-06 06:00S 36°50' E 174°46'0 0.0
2017-Sep-06 05:30S 36°50' E 174°46'0 0.0
2017-Sep-06 05:00S 36°50' E 174°46'0 0.0
2017-Sep-06 04:30S 36°50' E 174°46'0 0.0
2017-Sep-06 04:00S 36°50' E 174°46'0 0.0
2017-Sep-06 03:30S 36°50' E 174°46'0 0.0
2017-Sep-06 03:00S 36°50' E 174°46'0 0.0
2017-Sep-06 02:30S 36°50' E 174°46'0 0.0
2017-Sep-06 02:00S 36°50' E 174°46'0 0.0
2017-Sep-06 01:30S 36°50' E 174°46'0 0.0
2017-Sep-06 01:00S 36°50' E 174°46'0 0.0
2017-Sep-06 00:30S 36°50' E 174°46'0 0.0
2017-Sep-06 00:00S 36°50' E 174°46'0 0.0
2017-Sep-05 23:30S 36°50' E 174°46'0 0.0
2017-Sep-05 23:00S 36°50' E 174°46'0 0.0
2017-Sep-05 22:30S 36°50' E 174°46'0 0.0
2017-Sep-05 22:00S 36°50' E 174°46'0 0.0
2017-Sep-05 21:30S 36°50' E 174°46'0 0.0
2017-Sep-05 21:00S 36°50' E 174°46'0 0.0
2017-Sep-05 20:30S 36°50' E 174°46'0 0.0
2017-Sep-05 20:00S 36°50' E 174°46'0 0.0
2017-Sep-05 19:30S 36°50' E 174°46'0 0.0
2017-Sep-05 19:00S 36°50' E 174°46'0 0.0
2017-Sep-05 18:30S 36°50' E 174°46'0 0.1
2017-Sep-05 18:00S 36°50' E 174°46'3 5.1
2017-Sep-05 17:30S 36°50' E 174°49'611.6
2017-Sep-05 17:00S 36°44' E 174°51'4 9.0
2017-Sep-05 16:30S 36°40' E 174°54'3 5.3
2017-Sep-05 16:00S 36°38' E 174°56'5 9.7
2017-Sep-05 15:30S 36°34' E 174°59'510.1
2017-Sep-05 15:00S 36°29' E 174°59'510.3
2017-Sep-05 14:30S 36°24' E 174°59'510.1
2017-Sep-05 14:00S 36°19' E 174°57'510.3
2017-Sep-05 13:30S 36°14' E 174°56'2115.5
2017-Sep-05 12:11S 35°54' E 174°55'415.5
2017-Sep-05 11:56S 35°50' E 174°55'815.4
2017-Sep-05 11:23S 35°41' E 174°55'615.4
2017-Sep-05 11:00S 35°35' E 174°55'  
Track history (hours):
 
Tides and Currents Weather Stations Pressure Air Temp Water Temp Dewpoint Dewpoint Depression Visibility Wind Speed Wind Dir Waves Ship Positions

Lake Taupo

Last reported at 2017-Sep-14 07:36 UTC. Time now 2017-Sep-23 03:54 UTC.
Position S 22°08' E 165°46'.
Warning: this ship's position is 8 days out of date.

Length 182 m; draft 7.4 m.

Type: Cargo ship. MMSI: 636016205.

Date/timePositionNaut miles runAvg speedWind from/ knotsBaromVisibWave heightAir tempDewpointWater temp
2017-Sep-14 07:36S 22°08' E 165°46'115.4
2017-Sep-14 07:30S 22°09' E 165°48'815.5
2017-Sep-14 07:00S 22°14' E 165°55'815.3
2017-Sep-14 06:30S 22°18' E 166°01'815.4
2017-Sep-14 06:00S 22°23' E 166°08'714.3
2017-Sep-14 05:30S 22°21' E 166°16'713.4
2017-Sep-14 05:00S 22°16' E 166°21'5 9.6
2017-Sep-14 04:31S 22°16' E 166°26'0 0.3
2017-Sep-14 04:00S 22°16' E 166°26'0 0.0
2017-Sep-14 03:30S 22°16' E 166°26'0 0.0
2017-Sep-14 03:00S 22°16' E 166°26'0 0.0
2017-Sep-14 02:30S 22°16' E 166°26'0 0.0
2017-Sep-14 02:00S 22°16' E 166°26'0 0.0
2017-Sep-14 01:30S 22°16' E 166°26'0 0.0
2017-Sep-14 00:57S 22°16' E 166°26'0 0.0
2017-Sep-14 00:30S 22°16' E 166°26'0 0.0
2017-Sep-14 00:00S 22°16' E 166°26'0 0.0
2017-Sep-13 23:30S 22°16' E 166°26'1 1.2
2017-Sep-13 23:01S 22°15' E 166°26'612.0
2017-Sep-13 22:30S 22°18' E 166°19'815.6
2017-Sep-13 22:00S 22°23' E 166°14'5 9.1
2017-Sep-13 21:30S 22°28' E 166°12'612.0
2017-Sep-13 21:00S 22°33' E 166°13'  
2017-Sep-06 16:20S 36°31' E 175°52'1115.4
2017-Sep-06 15:36S 36°27' E 175°39'1213.7
2017-Sep-06 14:42S 36°24' E 175°24'210.0
2017-Sep-06 14:30S 36°24' E 175°22'5 9.5
2017-Sep-06 13:59S 36°26' E 175°16'5 9.9
2017-Sep-06 13:27S 36°29' E 175°11'4 9.9
2017-Sep-06 13:00S 36°31' E 175°06'5 9.8
2017-Sep-06 12:30S 36°34' E 175°01'5 9.8
2017-Sep-06 12:00S 36°38' E 174°57'510.0
2017-Sep-06 11:30S 36°42' E 174°53'5 9.8
2017-Sep-06 11:00S 36°45' E 174°49'5 9.8
2017-Sep-06 10:30S 36°50' E 174°48'1 2.6
2017-Sep-06 10:00S 36°50' E 174°46'0 0.0
2017-Sep-06 09:30S 36°50' E 174°46'0 0.0
2017-Sep-06 09:00S 36°50' E 174°46'0 0.0
2017-Sep-06 08:30S 36°50' E 174°46'0 0.0
2017-Sep-06 08:00S 36°50' E 174°46'0 0.0
2017-Sep-06 07:30S 36°50' E 174°46'0 0.0
2017-Sep-06 07:00S 36°50' E 174°46'0 0.0
2017-Sep-06 06:30S 36°50' E 174°46'0 0.0
2017-Sep-06 06:00S 36°50' E 174°46'0 0.0
2017-Sep-06 05:30S 36°50' E 174°46'0 0.0
2017-Sep-06 05:00S 36°50' E 174°46'0 0.0
2017-Sep-06 04:30S 36°50' E 174°46'0 0.0
2017-Sep-06 04:00S 36°50' E 174°46'0 0.0
2017-Sep-06 03:30S 36°50' E 174°46'0 0.0
2017-Sep-06 03:00S 36°50' E 174°46'0 0.0
2017-Sep-06 02:30S 36°50' E 174°46'0 0.0
2017-Sep-06 02:00S 36°50' E 174°46'0 0.0
2017-Sep-06 01:30S 36°50' E 174°46'0 0.0
2017-Sep-06 01:00S 36°50' E 174°46'0 0.0
2017-Sep-06 00:30S 36°50' E 174°46'0 0.0
2017-Sep-06 00:00S 36°50' E 174°46'0 0.0
2017-Sep-05 23:30S 36°50' E 174°46'0 0.0
2017-Sep-05 23:00S 36°50' E 174°46'0 0.0
2017-Sep-05 22:30S 36°50' E 174°46'0 0.0
2017-Sep-05 22:00S 36°50' E 174°46'0 0.0
2017-Sep-05 21:30S 36°50' E 174°46'0 0.0
2017-Sep-05 21:00S 36°50' E 174°46'0 0.0
2017-Sep-05 20:30S 36°50' E 174°46'0 0.0
2017-Sep-05 20:00S 36°50' E 174°46'0 0.0
2017-Sep-05 19:30S 36°50' E 174°46'0 0.0
2017-Sep-05 19:00S 36°50' E 174°46'0 0.0
2017-Sep-05 18:30S 36°50' E 174°46'0 0.1
2017-Sep-05 18:00S 36°50' E 174°46'3 5.1
2017-Sep-05 17:30S 36°50' E 174°49'611.6
2017-Sep-05 17:00S 36°44' E 174°51'4 9.0
2017-Sep-05 16:30S 36°40' E 174°54'3 5.3
2017-Sep-05 16:00S 36°38' E 174°56'5 9.7
2017-Sep-05 15:30S 36°34' E 174°59'510.1
2017-Sep-05 15:00S 36°29' E 174°59'510.3
2017-Sep-05 14:30S 36°24' E 174°59'510.1
2017-Sep-05 14:00S 36°19' E 174°57'510.3
2017-Sep-05 13:30S 36°14' E 174°56'2115.5
2017-Sep-05 12:11S 35°54' E 174°55'415.5
2017-Sep-05 11:56S 35°50' E 174°55'815.4
2017-Sep-05 11:23S 35°41' E 174°55'615.4
2017-Sep-05 11:00S 35°35' E 174°55'  

Dump ship's entire track history